Time;durP1;ratioP1;P1;durP2;ratioP2;P2;SDS_P1;SDS_P2;PMS_P1;PMS_P2;Temp;Humidity;BMP_temperature;BMP_pressure;BME280_temperature;BME280_humidity;BME280_pressure;Samples;Min_cycle;Max_cycle;Signal;HPM_P1;HPM_P2
2023/08/24 00:00:08;;;;;;;;;8.00;8.00;;;;;23.45;100.00;98983.59;6241364;27;98860;-68
2023/08/24 00:03:12;;;;;;;;;7.00;6.00;;;;;23.39;100.00;98982.00;6246723;27;99341;-68
2023/08/24 00:06:16;;;;;;;;;9.00;9.00;;;;;23.44;100.00;98990.16;6245871;27;99128;-67
2023/08/24 00:09:19;;;;;;;;;9.25;9.00;;;;;23.44;100.00;98979.97;6264692;27;96221;-68
2023/08/24 00:12:24;;;;;;;;;9.40;9.00;;;;;23.42;100.00;98975.88;6264444;27;96299;-68
2023/08/24 00:15:27;;;;;;;;;8.00;7.80;;;;;23.39;100.00;98973.75;6279823;27;96486;-68
2023/08/24 00:18:31;;;;;;;;;10.00;9.00;;;;;23.33;100.00;98971.09;6254140;27;97014;-68
2023/08/24 00:21:34;;;;;;;;;11.00;10.00;;;;;23.33;100.00;98978.53;6280550;27;97015;-68
2023/08/24 00:24:37;;;;;;;;;9.00;8.60;;;;;23.26;100.00;98967.91;6264078;27;96449;-68
2023/08/24 00:27:42;;;;;;;;;9.00;8.40;;;;;23.25;100.00;98979.22;6264128;27;96464;-67
2023/08/24 00:30:45;;;;;;;;;10.50;10.50;;;;;23.20;100.00;98973.81;6245158;27;100256;-67
2023/08/24 00:33:50;;;;;;;;;10.60;10.00;;;;;23.20;100.00;98969.13;6262663;27;96294;-68
2023/08/24 00:36:53;;;;;;;;;8.67;8.00;;;;;23.18;100.00;98976.88;6257180;27;97500;-68
2023/08/24 00:39:57;;;;;;;;;12.00;11.00;;;;;23.15;100.00;98977.47;6263830;27;96628;-67
2023/08/24 00:43:01;;;;;;;;;9.00;9.00;;;;;23.12;100.00;98974.50;6263580;27;96393;-68
2023/08/24 00:46:05;;;;;;;;;11.50;11.50;;;;;23.07;100.00;98972.66;6257813;27;98455;-68
2023/08/24 00:49:08;;;;;;;;;11.00;9.00;;;;;23.00;100.00;98966.75;6244875;27;99023;-68
2023/08/24 00:52:11;;;;;;;;;10.80;10.40;;;;;22.95;100.00;98977.00;6263155;27;96276;-68
2023/08/24 00:55:15;;;;;;;;;10.20;10.00;;;;;22.87;100.00;98976.56;6260546;27;96734;-67
2023/08/24 00:58:20;;;;;;;;;9.00;9.00;;;;;22.86;100.00;98977.69;6261866;27;97631;-67
2023/08/24 01:01:24;;;;;;;;;9.00;9.00;;;;;22.87;100.00;98984.00;6244788;27;96722;-68
2023/08/24 01:04:28;;;;;;;;;11.00;10.40;;;;;22.86;100.00;98979.63;6267870;27;96549;-68
2023/08/24 01:07:31;;;;;;;;;10.75;10.75;;;;;22.80;100.00;98978.06;6267965;27;96478;-68
2023/08/24 01:10:46;;;;;;;;;10.00;9.20;;;;;22.72;100.00;98968.59;6286814;27;97586;-68
2023/08/24 01:14:02;;;;;;;;;13.60;11.80;;;;;22.63;100.00;98970.31;6273626;27;96426;-67
2023/08/24 01:17:11;;;;;;;;;12.00;10.00;;;;;22.66;100.00;98977.16;6269583;27;96439;-68
2023/08/24 01:20:16;;;;;;;;;7.00;7.00;;;;;22.69;100.00;98973.81;6287302;27;96320;-68
2023/08/24 01:23:33;;;;;;;;;9.00;9.00;;;;;22.66;100.00;98968.91;6283977;27;96821;-67
2023/08/24 01:26:39;;;;;;;;;9.60;9.00;;;;;22.63;100.00;98975.81;6287127;27;96729;-68
2023/08/24 01:29:43;;;;;;;;;10.00;9.60;;;;;22.61;100.00;98971.75;6269591;27;97281;-68
2023/08/24 01:32:46;;;;;;;;;10.00;9.00;;;;;22.61;100.00;98971.75;6251161;27;98765;-67
2023/08/24 01:35:49;;;;;;;;;8.00;8.00;;;;;22.59;100.00;98962.97;6287477;27;96848;-68
2023/08/24 01:39:06;;;;;;;;;9.80;9.20;;;;;22.59;100.00;98968.47;6287759;27;96751;-67
2023/08/24 01:42:16;;;;;;;;;10.00;9.60;;;;;22.52;100.00;98973.53;6269545;27;97134;-67
2023/08/24 01:45:20;;;;;;;;;11.00;10.00;;;;;22.50;100.00;98975.75;6287736;27;96422;-68
2023/08/24 01:48:24;;;;;;;;;11.40;11.40;;;;;22.45;100.00;98976.63;6285260;27;96946;-68
2023/08/24 01:51:27;;;;;;;;;11.75;10.75;;;;;22.44;100.00;98964.84;6286696;27;97624;-67
2023/08/24 01:54:31;;;;;;;;;12.00;12.00;;;;;22.38;100.00;98970.72;6287204;27;96245;-67
2023/08/24 01:57:36;;;;;;;;;12.00;11.00;;;;;22.33;100.00;98971.56;6287178;27;96506;-67
2023/08/24 02:00:40;;;;;;;;;12.00;11.00;;;;;22.27;100.00;98958.22;6269854;27;96291;-67
2023/08/24 02:03:44;;;;;;;;;12.00;11.00;;;;;22.28;100.00;98966.19;6265854;27;96653;-67
2023/08/24 02:06:47;;;;;;;;;12.00;11.00;;;;;22.24;100.00;98969.78;6287803;27;96502;-67
2023/08/24 02:09:51;;;;;;;;;11.40;11.00;;;;;22.20;100.00;98963.25;6287740;27;96261;-67
2023/08/24 02:12:56;;;;;;;;;9.00;9.00;;;;;22.16;100.00;98975.97;6267256;27;96857;-67
2023/08/24 02:16:03;;;;;;;;;11.40;9.40;;;;;22.12;100.00;98973.00;6286111;27;96356;-67
2023/08/24 02:19:06;;;;;;;;;9.00;9.00;;;;;22.07;100.00;98975.81;6268273;27;96645;-67
2023/08/24 02:22:10;;;;;;;;;9.60;9.60;;;;;22.05;100.00;98969.78;6270145;27;96380;-67
2023/08/24 02:25:13;;;;;;;;;10.00;9.00;;;;;22.04;100.00;98971.69;6294240;27;96209;-67
2023/08/24 02:28:17;;;;;;;;;9.80;8.00;;;;;21.99;100.00;98970.97;6258867;27;98726;-67
2023/08/24 02:31:22;;;;;;;;;10.60;9.40;;;;;21.94;100.00;98977.31;6275971;27;96867;-67
2023/08/24 02:34:26;;;;;;;;;11.00;10.00;;;;;21.95;100.00;98978.13;6276888;27;97029;-67
2023/08/24 02:37:32;;;;;;;;;13.00;12.00;;;;;21.89;100.00;98971.84;6276879;27;96276;-67
2023/08/24 02:40:36;;;;;;;;;10.00;9.00;;;;;21.88;100.00;98978.47;6272519;27;96667;-67
2023/08/24 02:43:41;;;;;;;;;11.00;11.00;;;;;21.85;100.00;98976.31;6295209;27;96909;-67
2023/08/24 02:46:49;;;;;;;;;13.00;12.00;;;;;21.81;100.00;98978.00;6276695;27;96588;-67
2023/08/24 02:49:53;;;;;;;;;12.40;11.00;;;;;21.77;100.00;98976.13;6294758;27;96898;-67
2023/08/24 02:52:57;;;;;;;;;11.67;11.67;;;;;21.67;100.00;98981.75;6293543;27;96555;-68
2023/08/24 02:56:01;;;;;;;;;13.40;12.40;;;;;21.64;100.00;98971.38;6276722;27;96328;-67
2023/08/24 02:59:06;;;;;;;;;12.40;12.00;;;;;21.64;100.00;98968.63;6289561;27;97348;-67
2023/08/24 03:02:09;;;;;;;;;12.00;11.00;;;;;21.63;100.00;98975.22;6252065;27;98948;-67
2023/08/24 03:05:12;;;;;;;;;15.00;13.00;;;;;21.64;100.00;98982.34;6268222;27;96541;-67
2023/08/24 03:08:16;;;;;;;;;14.60;14.00;;;;;21.66;100.00;98969.13;6281254;27;96423;-67
2023/08/24 03:11:19;;;;;;;;;12.60;12.20;;;;;21.72;100.00;98976.19;6274106;27;96926;-67
2023/08/24 03:14:23;;;;;;;;;12.25;11.75;;;;;21.73;100.00;98967.69;6275476;27;99066;-67
2023/08/24 03:17:28;;;;;;;;;13.00;11.60;;;;;21.77;100.00;98973.41;6276348;27;96148;-67
2023/08/24 03:20:31;;;;;;;;;14.60;13.60;;;;;21.78;100.00;98975.84;6276600;27;96465;-67
2023/08/24 03:23:35;;;;;;;;;16.00;13.00;;;;;21.79;100.00;98968.44;6294822;27;96351;-67
2023/08/24 03:26:38;;;;;;;;;14.00;13.00;;;;;21.81;100.00;98977.19;6275097;27;97928;-67
2023/08/24 03:29:42;;;;;;;;;15.00;13.00;;;;;21.81;100.00;98982.66;6278174;27;96359;-67
2023/08/24 03:32:46;;;;;;;;;14.25;14.00;;;;;21.82;100.00;98984.31;6270701;27;97617;-67
2023/08/24 03:35:50;;;;;;;;;13.67;13.67;;;;;21.82;100.00;98990.63;6268529;27;96530;-67
2023/08/24 03:38:55;;;;;;;;;16.00;15.00;;;;;21.79;100.00;98996.72;6252742;27;96922;-67
2023/08/24 03:41:58;;;;;;;;;16.80;16.00;;;;;21.77;100.00;98992.59;6267436;27;97015;-67
2023/08/24 03:45:03;;;;;;;;;17.00;16.00;;;;;21.76;100.00;98993.72;6268890;27;96450;-67
2023/08/24 03:48:07;;;;;;;;;17.00;15.20;;;;;21.71;100.00;98997.34;6287501;27;97229;-67
2023/08/24 03:51:10;;;;;;;;;15.60;13.60;;;;;21.70;100.00;98992.16;6264901;27;96877;-67
2023/08/24 03:54:13;;;;;;;;;16.80;15.60;;;;;21.66;100.00;98991.91;6249880;27;96690;-67
2023/08/24 03:57:16;;;;;;;;;14.00;14.00;;;;;21.67;100.00;98992.72;6269438;27;96498;-67
2023/08/24 04:00:21;;;;;;;;;15.25;13.75;;;;;21.69;100.00;98993.25;6249335;27;97128;-67
2023/08/24 04:03:24;;;;;;;;;12.00;11.40;;;;;21.74;100.00;98998.69;6245021;27;96682;-67
2023/08/24 04:06:27;;;;;;;;;14.00;13.00;;;;;21.79;100.00;98990.41;6230234;27;96725;-67
2023/08/24 04:09:30;;;;;;;;;16.00;14.00;;;;;21.83;100.00;98984.03;6259982;27;96275;-65
2023/08/24 04:12:34;;;;;;;;;16.80;15.40;;;;;21.84;100.00;98985.66;6265430;27;96329;-64
2023/08/24 04:15:38;;;;;;;;;18.60;17.60;;;;;21.86;100.00;98982.63;6266472;27;96365;-64
2023/08/24 04:18:42;;;;;;;;;20.00;18.75;;;;;21.90;100.00;98991.88;6231767;27;97023;-63
2023/08/24 04:21:45;;;;;;;;;20.60;17.60;;;;;21.97;100.00;98995.97;6265189;27;96384;-63
2023/08/24 04:24:48;;;;;;;;;18.60;16.60;;;;;21.95;100.00;98978.97;6233057;27;98434;-65
2023/08/24 04:27:51;;;;;;;;;17.40;17.00;;;;;22.04;100.00;98993.66;6265508;27;96865;-64
2023/08/24 04:30:58;;;;;;;;;18.00;16.60;;;;;22.12;100.00;98992.22;6265126;27;98240;-63
2023/08/24 04:34:03;;;;;;;;;21.00;19.00;;;;;22.20;100.00;98993.47;6243466;27;96668;-63
2023/08/24 04:37:07;;;;;;;;;22.00;21.00;;;;;22.24;100.00;98995.31;6265287;27;97476;-64
2023/08/24 04:40:11;;;;;;;;;25.40;23.00;;;;;22.30;100.00;98996.09;6229952;27;96822;-64
2023/08/24 04:43:14;;;;;;;;;23.75;21.25;;;;;22.31;100.00;98989.47;6266195;27;96400;-64
2023/08/24 04:46:19;;;;;;;;;21.50;20.00;;;;;22.34;100.00;98986.94;6264753;27;96344;-63
2023/08/24 04:49:23;;;;;;;;;20.00;19.25;;;;;22.35;100.00;98990.50;6248807;27;96447;-64
2023/08/24 04:52:26;;;;;;;;;19.67;19.00;;;;;22.36;100.00;98992.16;6249081;27;96539;-64
2023/08/24 04:55:29;;;;;;;;;21.00;19.00;;;;;22.37;100.00;98996.53;6266187;27;96337;-64
2023/08/24 04:58:34;;;;;;;;;19.00;17.60;;;;;22.38;100.00;98995.44;6247819;27;96543;-64
2023/08/24 05:01:38;;;;;;;;;19.20;18.00;;;;;22.34;100.00;99000.69;6267620;27;96509;-63
2023/08/24 05:04:41;;;;;;;;;17.67;16.67;;;;;22.40;100.00;98996.75;6285938;27;96514;-64
2023/08/24 05:07:45;;;;;;;;;16.20;15.20;;;;;22.50;100.00;98997.72;6249452;27;96763;-63
2023/08/24 05:10:48;;;;;;;;;20.00;20.00;;;;;22.55;100.00;99006.72;6243054;27;98543;-64
2023/08/24 05:13:51;;;;;;;;;19.25;19.00;;;;;22.62;100.00;98998.13;6276357;27;96488;-63
2023/08/24 05:16:56;;;;;;;;;19.00;18.00;;;;;22.66;100.00;99002.72;6279366;27;96992;-64
2023/08/24 05:19:59;;;;;;;;;21.80;21.00;;;;;22.84;100.00;99003.84;6266931;27;96375;-63
2023/08/24 05:23:02;;;;;;;;;22.00;22.00;;;;;22.92;100.00;98991.34;6272973;27;96335;-64
2023/08/24 05:26:06;;;;;;;;;19.00;18.00;;;;;23.07;100.00;99000.16;6280810;27;96311;-64
2023/08/24 05:29:09;;;;;;;;;23.00;21.00;;;;;23.16;100.00;99001.13;6266538;27;97663;-63
2023/08/24 05:32:13;;;;;;;;;23.00;21.60;;;;;23.31;100.00;99008.28;6272869;27;98306;-64
2023/08/24 05:35:17;;;;;;;;;21.60;20.60;;;;;23.44;100.00;99002.00;6264773;27;96547;-64
2023/08/24 05:38:20;;;;;;;;;24.60;21.40;;;;;23.53;100.00;99002.94;6265540;27;96635;-64
2023/08/24 05:41:23;;;;;;;;;25.60;22.80;;;;;23.68;100.00;99010.09;6246571;27;98490;-64
2023/08/24 05:44:27;;;;;;;;;23.00;21.20;;;;;23.83;100.00;99000.75;6247638;27;98976;-64
2023/08/24 05:47:31;;;;;;;;;22.25;20.25;;;;;23.92;100.00;99002.47;6266486;27;97027;-63
2023/08/24 05:50:35;;;;;;;;;23.20;21.20;;;;;24.10;100.00;98996.03;6228743;27;96669;-63
2023/08/24 05:53:40;;;;;;;;;18.60;17.60;;;;;24.21;100.00;99002.16;6256010;27;97345;-65
2023/08/24 05:56:43;;;;;;;;;23.00;21.00;;;;;24.36;100.00;99003.78;6248520;27;97265;-64
2023/08/24 05:59:47;;;;;;;;;24.00;21.00;;;;;24.53;100.00;99002.00;6272683;27;97011;-64
2023/08/24 06:02:51;;;;;;;;;25.00;21.00;;;;;24.74;100.00;99009.81;6259638;27;96987;-65
2023/08/24 06:05:54;;;;;;;;;23.00;21.00;;;;;24.82;100.00;99012.66;6259509;27;98511;-65
2023/08/24 06:08:57;;;;;;;;;24.00;22.00;;;;;24.98;100.00;99013.94;6274257;27;96360;-64
2023/08/24 06:12:01;;;;;;;;;25.00;21.60;;;;;25.08;100.00;99007.34;6268548;27;96340;-64
2023/08/24 06:15:07;;;;;;;;;26.00;23.00;;;;;25.12;100.00;99018.59;6254445;27;97391;-64
2023/08/24 06:18:12;;;;;;;;;23.80;21.80;;;;;25.31;100.00;99011.75;6270213;27;96750;-64
2023/08/24 06:21:15;;;;;;;;;24.40;22.00;;;;;25.50;100.00;99016.22;6251020;27;96843;-64
2023/08/24 06:24:18;;;;;;;;;25.50;22.25;;;;;25.56;100.00;99004.75;6287500;27;96426;-64
2023/08/24 06:27:22;;;;;;;;;20.80;19.60;;;;;25.73;100.00;99010.38;6276357;27;97495;-65
2023/08/24 06:30:25;;;;;;;;;21.00;20.00;;;;;25.93;100.00;99008.16;6294732;27;96350;-65
2023/08/24 06:33:34;;;;;;;;;25.00;23.00;;;;;26.06;100.00;99008.03;6273018;27;96270;-64
2023/08/24 06:36:37;;;;;;;;;25.00;22.00;;;;;26.19;100.00;99006.31;6247084;27;98525;-64
2023/08/24 06:39:40;;;;;;;;;20.80;19.20;;;;;26.41;100.00;98997.09;6240691;27;96501;-64
2023/08/24 06:42:43;;;;;;;;;24.00;21.00;;;;;26.44;100.00;98986.22;6252508;27;96525;-64
2023/08/24 06:45:46;;;;;;;;;26.00;23.00;;;;;26.54;100.00;99008.00;6244952;27;96403;-64
2023/08/24 06:48:51;;;;;;;;;28.00;23.50;;;;;26.53;100.00;98997.28;6262790;27;98647;-65
2023/08/24 06:51:54;;;;;;;;;20.50;18.00;;;;;26.69;100.00;99010.31;6245803;27;96781;-64
2023/08/24 06:54:57;;;;;;;;;17.60;17.00;;;;;26.84;100.00;99010.97;6287193;27;96564;-64
2023/08/24 06:58:01;;;;;;;;;17.00;16.00;;;;;27.08;100.00;99016.84;6272227;27;96481;-65
2023/08/24 07:01:05;;;;;;;;;17.00;16.00;;;;;27.29;100.00;99020.56;6289130;27;96834;-64
2023/08/24 07:04:10;;;;;;;;;22.50;18.50;;;;;27.37;100.00;99011.41;6270632;27;96492;-64
2023/08/24 07:07:14;;;;;;;;;17.00;16.00;;;;;27.47;100.00;99024.91;6292250;27;96121;-64
2023/08/24 07:10:17;;;;;;;;;21.60;16.60;;;;;27.65;100.00;99019.38;6296337;27;96927;-64
2023/08/24 07:13:20;;;;;;;;;19.00;18.00;;;;;27.87;100.00;99014.38;6269679;27;96692;-64
2023/08/24 07:16:24;;;;;;;;;18.00;16.80;;;;;28.03;100.00;99017.44;6288325;27;96344;-64
2023/08/24 07:19:28;;;;;;;;;19.00;16.20;;;;;28.00;100.00;99018.88;6279320;27;99188;-64
2023/08/24 07:22:31;;;;;;;;;18.00;16.00;;;;;27.96;100.00;99019.88;6279728;27;96488;-65
2023/08/24 07:25:35;;;;;;;;;17.00;16.00;;;;;27.92;100.00;99032.78;6299127;27;97584;-64
2023/08/24 07:28:38;;;;;;;;;15.20;15.00;;;;;28.11;100.00;99029.59;6299989;27;96988;-63
2023/08/24 07:31:41;;;;;;;;;19.50;18.50;;;;;28.16;100.00;99027.50;6302077;27;96343;-64
2023/08/24 07:34:46;;;;;;;;;19.00;16.60;;;;;28.34;100.00;99033.78;6266634;27;96167;-63
2023/08/24 07:37:49;;;;;;;;;16.00;16.00;;;;;28.55;100.00;99034.59;6264514;27;96760;-63
2023/08/24 07:40:53;;;;;;;;;16.50;15.00;;;;;28.75;100.00;99028.28;6276779;27;96657;-63
2023/08/24 07:43:56;;;;;;;;;17.25;16.00;;;;;29.13;100.00;99024.53;6269661;27;96308;-65
2023/08/24 07:47:00;;;;;;;;;16.25;15.75;;;;;29.19;100.00;99032.31;6272854;27;98341;-63
2023/08/24 07:50:06;;;;;;;;;19.00;16.00;;;;;29.21;100.00;99030.03;6283685;27;96514;-64
2023/08/24 07:53:09;;;;;;;;;17.00;16.00;;;;;29.31;100.00;99022.44;6269690;27;96769;-63
2023/08/24 07:56:12;;;;;;;;;16.00;15.00;;;;;29.50;100.00;99026.34;6290084;27;96466;-64
2023/08/24 07:59:16;;;;;;;;;14.00;13.00;;;;;29.86;100.00;99022.00;6270102;27;96775;-63
2023/08/24 08:02:19;;;;;;;;;15.00;13.20;;;;;30.20;100.00;99018.81;6271424;27;97068;-63
2023/08/24 08:05:23;;;;;;;;;15.00;13.75;;;;;30.51;100.00;99026.56;6288685;27;96315;-64
2023/08/24 08:08:26;;;;;;;;;16.00;15.00;;;;;30.91;100.00;99026.59;6290749;27;96413;-64
2023/08/24 08:11:30;;;;;;;;;15.00;12.60;;;;;31.02;100.00;99013.03;6290893;27;96681;-63
2023/08/24 08:14:33;;;;;;;;;16.50;16.00;;;;;31.27;100.00;99034.03;6293385;27;96914;-64
2023/08/24 08:17:37;;;;;;;;;15.00;14.60;;;;;31.15;100.00;99029.31;6273975;27;96709;-64
2023/08/24 08:20:41;;;;;;;;;14.67;14.00;;;;;31.22;100.00;99029.53;6294944;27;96537;-64
2023/08/24 08:23:45;;;;;;;;;17.00;14.40;;;;;31.39;100.00;99025.63;6287133;27;96381;-63
2023/08/24 08:26:48;;;;;;;;;16.80;16.00;;;;;31.36;100.00;99023.56;6294551;27;98576;-64
2023/08/24 08:29:52;;;;;;;;;14.00;13.00;;;;;31.48;100.00;99028.22;6290070;27;96771;-64
2023/08/24 08:32:55;;;;;;;;;14.40;14.00;;;;;31.85;100.00;99026.06;6297669;27;96643;-64
2023/08/24 08:36:00;;;;;;;;;12.40;12.00;;;;;31.77;100.00;99025.88;6266719;27;96006;-63
2023/08/24 08:39:04;;;;;;;;;13.00;12.00;;;;;31.71;100.00;99026.53;6275660;27;96597;-64
2023/08/24 08:42:12;;;;;;;;;16.00;15.00;;;;;31.80;100.00;99019.59;6262867;27;98446;-64
2023/08/24 08:45:17;;;;;;;;;12.80;11.80;;;;;31.76;100.00;98996.41;6294016;27;96895;-64
2023/08/24 08:48:21;;;;;;;;;13.00;12.00;;;;;32.19;100.00;99026.19;6282153;27;96389;-64
2023/08/24 08:51:26;;;;;;;;;14.50;13.00;;;;;32.35;100.00;99025.38;6282806;27;96326;-64
2023/08/24 08:54:29;;;;;;;;;15.00;14.00;;;;;32.29;100.00;99018.44;6259844;27;97924;-65
2023/08/24 08:57:33;;;;;;;;;13.00;13.00;;;;;32.36;100.00;99018.59;6264588;27;96746;-65
2023/08/24 09:00:37;;;;;;;;;12.00;12.00;;;;;32.58;100.00;99023.50;6285372;27;96323;-64
2023/08/24 09:03:42;;;;;;;;;13.00;11.00;;;;;32.95;100.00;99019.16;6276757;27;97284;-65
2023/08/24 09:06:47;;;;;;;;;13.20;11.20;;;;;33.29;100.00;99017.50;6288591;27;96731;-64
2023/08/24 09:09:50;;;;;;;;;14.00;13.00;;;;;33.34;100.00;99016.38;6260653;27;97053;-65
2023/08/24 09:12:53;;;;;;;;;11.00;10.25;;;;;33.33;100.00;99012.00;6262931;27;96694;-64
2023/08/24 09:16:04;;;;;;;;;12.00;12.00;;;;;33.07;100.00;99005.06;6279857;27;96392;-64
2023/08/24 09:19:07;;;;;;;;;11.00;11.00;;;;;33.47;100.00;99009.47;6280602;27;96393;-65
2023/08/24 09:22:12;;;;;;;;;12.00;11.00;;;;;33.81;100.00;99010.53;6260772;27;98811;-65
2023/08/24 09:25:15;;;;;;;;;10.50;10.50;;;;;34.11;100.00;99008.59;6256190;27;97069;-64
2023/08/24 09:28:25;;;;;;;;;10.00;9.50;;;;;34.51;100.00;99004.44;6276248;27;96358;-65
2023/08/24 09:31:37;;;;;;;;;10.60;10.00;;;;;34.95;99.03;98988.69;6273166;27;96473;-66
2023/08/24 09:34:40;;;;;;;;;11.00;10.20;;;;;35.07;92.41;99008.06;6273911;27;97365;-65
2023/08/24 09:37:45;;;;;;;;;11.00;10.00;;;;;34.84;94.84;99000.97;6278504;27;97605;-64
2023/08/24 09:40:52;;;;;;;;;13.00;11.60;;;;;34.93;98.87;98998.66;6276934;27;96469;-65
2023/08/24 09:43:55;;;;;;;;;12.00;11.00;;;;;35.07;99.67;98996.03;6275673;27;96652;-65
2023/08/24 09:46:59;;;;;;;;;9.00;8.00;;;;;35.43;94.44;98997.28;6271907;27;96521;-65
2023/08/24 09:50:02;;;;;;;;;9.60;9.40;;;;;35.75;89.47;98992.81;6268339;27;96535;-65
2023/08/24 09:53:07;;;;;;;;;10.60;8.00;;;;;36.15;86.53;98991.19;6273133;27;96325;-65
2023/08/24 09:56:14;;;;;;;;;9.00;8.00;;;;;36.20;79.15;98997.25;6272624;27;96315;-65
2023/08/24 09:59:18;;;;;;;;;9.80;9.00;;;;;35.89;80.80;99003.38;6251642;27;96744;-65
2023/08/24 10:02:26;;;;;;;;;8.75;8.75;;;;;35.71;83.84;98996.78;6276228;27;96934;-65
2023/08/24 10:05:32;;;;;;;;;9.00;9.00;;;;;35.71;80.67;99000.41;6274486;27;96804;-65
2023/08/24 10:08:58;;;;;;;;;8.00;7.00;;;;;36.21;84.28;98995.25;6272277;27;96404;-65
2023/08/24 10:12:06;;;;;;;;;8.00;8.00;;;;;36.44;76.61;99001.41;6256084;27;98656;-65
2023/08/24 10:15:11;;;;;;;;;8.25;8.00;;;;;36.37;76.22;98992.94;6254092;27;96886;-64
2023/08/24 10:18:16;;;;;;;;;9.50;8.50;;;;;36.41;77.13;98993.75;6270249;27;96374;-65
2023/08/24 10:21:20;;;;;;;;;9.00;8.00;;;;;36.70;78.72;98997.59;6242836;27;99129;-65
2023/08/24 10:24:25;;;;;;;;;8.60;7.60;;;;;37.03;77.87;98990.94;6272332;27;97212;-66
2023/08/24 10:27:29;;;;;;;;;7.00;6.00;;;;;37.09;65.88;98978.13;6261798;27;98649;-65
2023/08/24 10:30:34;;;;;;;;;7.00;6.40;;;;;37.04;67.43;98982.09;6256919;27;96348;-65
2023/08/24 10:33:38;;;;;;;;;7.00;6.00;;;;;37.10;61.00;98982.53;6253494;27;96367;-65
2023/08/24 10:36:42;;;;;;;;;7.00;6.00;;;;;37.17;59.38;98974.13;6245151;27;96748;-65
2023/08/24 10:39:48;;;;;;;;;5.00;4.20;;;;;36.84;62.22;98963.94;6273074;27;96568;-65
2023/08/24 10:42:51;;;;;;;;;6.00;6.00;;;;;36.74;64.63;98967.53;6273222;27;96337;-65
2023/08/24 10:45:56;;;;;;;;;7.00;6.00;;;;;36.45;58.32;98961.72;6242293;27;98254;-65
2023/08/24 10:49:00;;;;;;;;;6.00;6.00;;;;;36.69;60.29;98954.66;6258520;27;96772;-65
2023/08/24 10:52:21;;;;;;;;;5.80;5.00;;;;;36.78;63.42;98955.09;6276078;27;96286;-65
2023/08/24 10:55:27;;;;;;;;;5.50;5.50;;;;;37.01;58.91;98953.97;6275923;27;96308;-65
2023/08/24 10:58:34;;;;;;;;;4.00;4.00;;;;;37.01;49.99;98954.78;6278210;27;96284;-65
2023/08/24 11:01:40;;;;;;;;;5.00;4.00;;;;;37.00;49.31;98947.53;6270212;27;96739;-65
2023/08/24 11:05:06;;;;;;;;;5.00;5.00;;;;;36.78;57.46;98946.66;6299460;27;96448;-65
2023/08/24 11:08:10;;;;;;;;;5.00;5.00;;;;;36.56;56.24;98941.28;6301859;27;96425;-64
2023/08/24 11:11:21;;;;;;;;;5.00;4.80;;;;;36.61;61.59;98936.13;6302315;27;96487;-65
2023/08/24 11:14:26;;;;;;;;;6.00;5.00;;;;;36.97;61.41;98937.09;6296763;27;98374;-65
2023/08/24 11:17:32;;;;;;;;;5.00;5.00;;;;;37.14;57.54;98935.59;6302158;27;96647;-65
2023/08/24 11:20:35;;;;;;;;;7.00;6.60;;;;;36.89;57.56;98938.28;6307845;27;96240;-65
2023/08/24 11:23:39;;;;;;;;;5.00;5.00;;;;;36.59;58.59;98934.91;6301802;27;96551;-65
2023/08/24 11:26:45;;;;;;;;;7.00;6.00;;;;;36.66;58.04;98934.94;6303351;27;96273;-65
2023/08/24 11:29:58;;;;;;;;;6.00;6.00;;;;;36.45;60.47;98932.84;6288454;27;96273;-66
2023/08/24 11:33:02;;;;;;;;;7.00;6.00;;;;;36.71;68.36;98918.53;6266059;27;96933;-65
2023/08/24 11:36:07;;;;;;;;;8.00;7.00;;;;;36.65;64.87;98931.38;6281426;27;97640;-65
2023/08/24 11:39:17;;;;;;;;;6.20;6.00;;;;;36.79;63.42;98920.19;6281209;27;96428;-65
2023/08/24 11:42:21;;;;;;;;;6.75;6.75;;;;;36.97;62.05;98913.81;6297407;27;97191;-65
2023/08/24 11:45:30;;;;;;;;;7.00;7.00;;;;;36.67;61.61;98920.53;6301970;27;96338;-65
2023/08/24 11:48:33;;;;;;;;;8.00;8.00;;;;;36.49;66.24;98916.81;6299003;27;96335;-65
2023/08/24 11:51:37;;;;;;;;;6.20;6.20;;;;;36.57;64.42;98915.63;6280636;27;98180;-65
2023/08/24 11:54:46;;;;;;;;;9.00;9.00;;;;;36.62;64.87;98915.28;6282081;27;99243;-65
2023/08/24 11:57:50;;;;;;;;;7.60;7.00;;;;;36.65;60.36;98910.91;6279547;27;97121;-66
2023/08/24 12:00:54;;;;;;;;;9.00;8.00;;;;;36.73;66.13;98904.91;6276124;27;98392;-66
2023/08/24 12:03:58;;;;;;;;;8.00;8.00;;;;;37.06;64.70;98911.41;6270918;27;96788;-65
2023/08/24 12:07:01;;;;;;;;;7.60;7.60;;;;;37.42;63.70;98910.31;6291605;27;96261;-65
2023/08/24 12:10:06;;;;;;;;;6.40;6.40;;;;;37.72;62.47;98902.34;6275611;27;96911;-65
2023/08/24 12:13:13;;;;;;;;;8.50;8.00;;;;;37.91;60.56;98892.66;6278549;27;96825;-65
2023/08/24 12:16:17;;;;;;;;;7.00;6.60;;;;;37.70;58.88;98896.28;6301265;27;95989;-66
2023/08/24 12:19:22;;;;;;;;;6.00;5.60;;;;;37.85;58.12;98896.28;6293253;27;96251;-65
2023/08/24 12:22:25;;;;;;;;;6.00;6.00;;;;;37.80;57.95;98889.03;6287036;27;96570;-65
2023/08/24 12:25:28;;;;;;;;;7.00;6.00;;;;;37.85;57.16;98888.63;6296536;27;96442;-65
2023/08/24 12:28:35;;;;;;;;;7.00;6.00;;;;;37.74;56.77;98883.03;6252459;27;97196;-65
2023/08/24 12:31:44;;;;;;;;;7.00;7.00;;;;;37.64;59.15;98874.56;6256585;27;97246;-65
2023/08/24 12:34:47;;;;;;;;;7.25;7.00;;;;;37.57;57.15;98874.59;6258117;27;96714;-66
2023/08/24 12:37:50;;;;;;;;;7.00;6.00;;;;;37.54;58.17;98876.19;6274962;27;97018;-65
2023/08/24 12:40:54;;;;;;;;;6.00;6.00;;;;;37.24;57.84;98876.53;6270729;27;96355;-65
2023/08/24 12:44:04;;;;;;;;;6.75;6.50;;;;;37.27;59.77;98870.13;6279451;27;97308;-66
2023/08/24 12:47:08;;;;;;;;;7.00;7.00;;;;;37.45;60.22;98877.75;6260743;27;98556;-65
2023/08/24 12:50:11;;;;;;;;;4.80;4.80;;;;;37.58;57.68;98879.81;6267734;27;98509;-65
2023/08/24 12:53:14;;;;;;;;;7.00;7.00;;;;;37.58;53.43;98874.19;6299059;27;96943;-66
2023/08/24 12:56:18;;;;;;;;;6.00;5.00;;;;;37.51;55.69;98864.91;6299843;27;96380;-65
2023/08/24 12:59:22;;;;;;;;;7.00;7.00;;;;;37.42;57.76;98862.50;6305937;27;96307;-65
2023/08/24 13:02:25;;;;;;;;;6.50;5.50;;;;;37.38;56.04;98847.66;6274049;27;99022;-66
2023/08/24 13:05:40;;;;;;;;;6.80;5.00;;;;;37.46;60.77;98842.81;6305954;27;96772;-65
2023/08/24 13:08:44;;;;;;;;;6.40;5.40;;;;;37.50;59.71;98846.44;6304083;27;96294;-65
2023/08/24 13:11:47;;;;;;;;;6.00;6.00;;;;;37.11;56.81;98855.66;6276618;27;98614;-66
2023/08/24 13:14:51;;;;;;;;;6.00;5.60;;;;;36.63;58.80;98852.28;6280079;27;96327;-66
2023/08/24 13:17:55;;;;;;;;;5.00;5.00;;;;;36.32;60.84;98848.13;6289883;27;96840;-66
2023/08/24 13:20:58;;;;;;;;;5.40;5.40;;;;;36.34;62.53;98840.13;6284430;27;97396;-65
2023/08/24 13:24:01;;;;;;;;;5.00;4.60;;;;;36.39;62.98;98839.75;6273616;27;98633;-65
2023/08/24 13:27:10;;;;;;;;;7.60;6.60;;;;;36.31;59.94;98834.50;6289572;27;96535;-65
2023/08/24 13:30:15;;;;;;;;;6.75;6.00;;;;;35.70;64.46;98827.69;6301141;27;97321;-65
2023/08/24 13:33:19;;;;;;;;;5.50;5.00;;;;;35.62;65.79;98814.78;6296279;27;96796;-65
2023/08/24 13:36:22;;;;;;;;;6.75;6.00;;;;;35.33;64.50;98827.78;6289072;27;96999;-65
2023/08/24 13:39:28;;;;;;;;;8.00;6.00;;;;;35.32;66.29;98811.34;6299897;27;96515;-64
2023/08/24 13:42:31;;;;;;;;;6.00;5.00;;;;;35.36;67.32;98814.97;6265536;27;96879;-64
2023/08/24 13:45:36;;;;;;;;;7.00;7.00;;;;;35.20;67.35;98824.47;6296294;27;96330;-65
2023/08/24 13:48:39;;;;;;;;;6.80;6.00;;;;;35.19;70.97;98820.03;6287229;27;96997;-65
2023/08/24 13:51:42;;;;;;;;;7.50;7.50;;;;;35.38;69.83;98813.41;6279103;27;97192;-65
2023/08/24 13:54:46;;;;;;;;;7.00;7.00;;;;;35.17;66.60;98816.84;6263832;27;98434;-65
2023/08/24 13:58:01;;;;;;;;;6.00;4.40;;;;;35.20;66.64;98810.44;6271997;27;96676;-66
2023/08/24 14:01:06;;;;;;;;;6.00;6.00;;;;;35.15;66.91;98809.97;6264732;27;98759;-64
2023/08/24 14:04:09;;;;;;;;;7.50;7.00;;;;;34.97;70.37;98809.81;6293053;27;97345;-65
2023/08/24 14:07:13;;;;;;;;;6.00;5.00;;;;;35.00;71.35;98808.22;6281306;27;97366;-65
2023/08/24 14:10:18;;;;;;;;;8.40;7.00;;;;;34.85;69.20;98801.69;6279772;27;97172;-65